Time;durP1;ratioP1;P1;durP2;ratioP2;P2;SDS_P1;SDS_P2;PMS_P1;PMS_P2;Temp;Humidity;BMP_temperature;BMP_pressure;BME280_temperature;BME280_humidity;BME280_pressure;Samples;Min_cycle;Max_cycle;Signal;HPM_P1;HPM_P2
2022/05/08 00:01:27;;;;;;;9.60;5.13;;;;;;;13.08;78.27;102497.59;5121924;28;20107;-68
2022/05/08 00:03:53;;;;;;;8.43;5.05;;;;;;;13.06;77.92;102497.59;5122069;28;20097;-66
2022/05/08 00:06:18;;;;;;;9.57;5.13;;;;;;;13.03;78.04;102494.94;5121895;28;20039;-67
2022/05/08 00:08:43;;;;;;;8.95;4.60;;;;;;;13.02;78.44;102500.19;5121973;28;20023;-67
2022/05/08 00:11:09;;;;;;;10.65;5.35;;;;;;;12.99;78.51;102487.94;5121971;28;20055;-67
2022/05/08 00:13:35;;;;;;;10.13;5.47;;;;;;;13.01;78.37;102490.56;5103786;28;20132;-67
2022/05/08 00:16:01;;;;;;;10.23;5.28;;;;;;;12.94;79.14;102484.44;5121768;28;20112;-65
2022/05/08 00:18:26;;;;;;;11.05;4.82;;;;;;;12.99;79.07;102493.19;5121917;28;20038;-67
2022/05/08 00:20:51;;;;;;;11.90;5.90;;;;;;;13.03;78.85;102494.06;5103882;28;20434;-68
2022/05/08 00:23:17;;;;;;;8.40;5.57;;;;;;;12.86;79.42;102473.88;5121766;28;20028;-66
2022/05/08 00:25:42;;;;;;;11.52;5.85;;;;;;;12.84;79.91;102490.50;5121838;28;20028;-65
2022/05/08 00:28:07;;;;;;;9.98;5.95;;;;;;;12.91;79.21;102487.03;5121517;28;20055;-67
2022/05/08 00:30:33;;;;;;;10.82;6.10;;;;;;;12.82;80.19;102484.38;5121759;28;20035;-66
2022/05/08 00:32:59;;;;;;;10.63;6.13;;;;;;;12.82;80.03;102487.88;5121439;28;20032;-68
2022/05/08 00:35:24;;;;;;;11.95;6.15;;;;;;;12.78;80.49;102488.75;5121563;28;20123;-67
2022/05/08 00:37:49;;;;;;;10.45;5.97;;;;;;;12.66;80.24;102465.03;5121659;28;20088;-67
2022/05/08 00:40:15;;;;;;;9.85;6.00;;;;;;;12.78;80.76;102490.50;5121987;28;20034;-67
2022/05/08 00:42:41;;;;;;;10.18;6.22;;;;;;;12.77;80.67;102491.38;5103462;28;20449;-67
2022/05/08 00:45:07;;;;;;;12.18;6.85;;;;;;;12.64;81.15;102476.44;5121558;28;20023;-67
2022/05/08 00:47:32;;;;;;;14.13;6.75;;;;;;;12.75;80.83;102475.59;5121856;28;20042;-64
2022/05/08 00:49:58;;;;;;;11.88;6.60;;;;;;;12.72;81.06;102493.97;5117731;28;20084;-67
2022/05/08 00:52:23;;;;;;;8.68;6.28;;;;;;;12.69;81.61;102495.72;5118461;28;20045;-67
2022/05/08 00:54:49;;;;;;;10.82;6.22;;;;;;;12.63;81.49;102488.69;5118450;28;20027;-68
2022/05/08 00:57:14;;;;;;;10.40;6.88;;;;;;;12.70;81.35;102500.97;5118052;28;20047;-68
2022/05/08 00:59:40;;;;;;;14.65;7.35;;;;;;;12.71;81.22;102493.97;5117963;28;20103;-66
2022/05/08 01:02:05;;;;;;;13.80;7.13;;;;;;;12.61;81.60;102508.81;5118028;28;20063;-67
2022/05/08 01:04:31;;;;;;;10.85;7.13;;;;;;;12.70;81.07;102505.34;5118044;28;20063;-67
2022/05/08 01:06:56;;;;;;;13.68;7.60;;;;;;;12.52;81.97;102506.13;5118192;28;20023;-66
2022/05/08 01:09:22;;;;;;;14.10;7.90;;;;;;;12.55;81.91;102503.53;5099946;28;20043;-67
2022/05/08 01:11:48;;;;;;;11.85;8.05;;;;;;;12.52;82.22;102512.25;5117813;28;20064;-67
2022/05/08 01:14:13;;;;;;;13.60;8.05;;;;;;;12.45;82.45;102502.63;5100081;28;20379;-66
2022/05/08 01:16:40;;;;;;;16.77;7.95;;;;;;;12.46;81.86;102509.63;5117776;28;20027;-67
2022/05/08 01:19:05;;;;;;;12.90;8.20;;;;;;;12.53;80.95;102514.03;5117763;28;20378;-67
2022/05/08 01:21:43;;;;;;;12.52;8.27;;;;;;;12.41;81.96;102523.59;5117368;28;20032;-65
2022/05/08 01:24:09;;;;;;;15.05;8.75;;;;;;;12.38;82.05;102506.06;5117794;28;20107;-69
2022/05/08 01:26:34;;;;;;;16.95;9.25;;;;;;;12.36;81.77;102506.91;5117520;28;20118;-66
2022/05/08 01:29:01;;;;;;;15.77;8.65;;;;;;;12.25;82.13;102521.75;5117909;28;20474;-66
2022/05/08 01:31:26;;;;;;;15.82;9.07;;;;;;;12.28;82.12;102511.25;5117710;28;20359;-66
2022/05/08 01:33:51;;;;;;;17.05;9.15;;;;;;;12.34;81.60;102512.16;5117526;28;20027;-67
2022/05/08 01:36:17;;;;;;;15.32;9.20;;;;;;;12.17;82.13;102511.16;5117536;28;20028;-67
2022/05/08 01:38:43;;;;;;;15.98;9.50;;;;;;;12.17;82.35;102513.78;5117451;28;20035;-70
2022/05/08 01:41:08;;;;;;;18.45;9.38;;;;;;;12.13;82.64;102514.63;5117303;28;20055;-67
2022/05/08 01:43:36;;;;;;;14.60;9.63;;;;;;;12.18;82.70;102523.44;5117684;28;20103;-67
2022/05/08 01:46:02;;;;;;;14.52;9.50;;;;;;;12.16;82.49;102528.66;5117103;28;20028;-66
2022/05/08 01:48:27;;;;;;;14.40;9.73;;;;;;;12.10;82.45;102526.03;5117430;28;20031;-66
2022/05/08 01:50:54;;;;;;;15.05;9.52;;;;;;;12.08;82.57;102524.25;5117229;28;20316;-67
2022/05/08 01:53:21;;;;;;;14.10;9.60;;;;;;;12.10;82.17;102533.00;5117097;28;20027;-66
2022/05/08 01:55:54;;;;;;;18.40;9.52;;;;;;;11.96;82.22;102516.25;5117125;28;20059;-66
2022/05/08 01:58:23;;;;;;;15.25;9.90;;;;;;;11.99;82.00;102527.66;5117243;28;20040;-68
2022/05/08 02:00:49;;;;;;;15.93;9.95;;;;;;;11.92;82.53;102531.13;5116772;28;20027;-68
2022/05/08 02:03:15;;;;;;;18.58;9.82;;;;;;;11.82;82.86;102530.16;5116983;28;20034;-67
2022/05/08 02:05:42;;;;;;;16.67;10.05;;;;;;;11.79;82.76;102526.63;5117172;28;20031;-67
2022/05/08 02:08:09;;;;;;;15.90;9.93;;;;;;;11.81;83.09;102532.75;5098487;28;20366;-67
2022/05/08 02:10:34;;;;;;;17.08;10.57;;;;;;;11.84;82.75;102535.41;5116657;28;20385;-67
2022/05/08 02:12:59;;;;;;;15.95;9.85;;;;;;;11.79;82.96;102539.72;5116605;28;20028;-67
2022/05/08 02:15:29;;;;;;;18.50;10.40;;;;;;;11.73;83.32;102537.91;5116674;28;20159;-67
2022/05/08 02:17:58;;;;;;;17.70;10.55;;;;;;;11.71;83.44;102530.91;5116794;28;20032;-66
2022/05/08 02:20:23;;;;;;;15.63;10.38;;;;;;;11.79;83.32;102537.09;5116925;28;20027;-65
2022/05/08 02:22:49;;;;;;;16.70;10.07;;;;;;;11.66;83.94;102529.97;5116113;28;20494;-67
2022/05/08 02:25:14;;;;;;;17.20;10.73;;;;;;;11.69;83.83;102538.75;5116552;28;20019;-66
2022/05/08 02:27:41;;;;;;;16.95;10.07;;;;;;;11.65;84.01;102541.31;5116223;28;20116;-67
2022/05/08 02:30:09;;;;;;;17.10;10.63;;;;;;;11.60;84.04;102538.66;5116680;28;20435;-67
2022/05/08 02:32:34;;;;;;;19.23;10.88;;;;;;;11.55;84.62;102552.59;5116490;28;20028;-66
2022/05/08 02:35:00;;;;;;;18.50;10.75;;;;;;;11.55;84.92;102548.25;5116405;28;20103;-67
2022/05/08 02:37:25;;;;;;;17.80;10.77;;;;;;;11.56;85.12;102541.25;5116304;28;20412;-69
2022/05/08 02:39:50;;;;;;;18.55;11.40;;;;;;;11.56;85.17;102536.00;5116411;28;20035;-68
2022/05/08 02:42:15;;;;;;;19.42;10.88;;;;;;;11.55;85.12;102545.63;5116167;28;20027;-68
2022/05/08 02:44:41;;;;;;;16.08;10.98;;;;;;;11.58;85.03;102539.53;5116189;28;20058;-67
2022/05/08 02:47:06;;;;;;;16.88;10.75;;;;;;;11.49;85.00;102543.81;5116025;28;20039;-65
2022/05/08 02:49:31;;;;;;;18.67;11.02;;;;;;;11.46;84.99;102543.75;5116071;28;20047;-67
2022/05/08 02:51:57;;;;;;;17.80;10.70;;;;;;;11.46;85.10;102549.00;5116017;28;20024;-66
2022/05/08 02:54:22;;;;;;;18.00;11.65;;;;;;;11.48;84.97;102549.03;5116449;28;20350;-68
2022/05/08 02:59:31;;;;;;;19.23;11.10;;;;;;;11.41;84.00;102545.47;5115716;28;20066;-66
2022/05/08 03:01:56;;;;;;;19.83;11.10;;;;;;;11.34;84.10;102540.16;5116086;28;20070;-68
2022/05/08 03:04:21;;;;;;;18.67;10.55;;;;;;;11.40;83.75;102559.44;5115947;28;20027;-66
2022/05/08 03:06:47;;;;;;;15.93;10.40;;;;;;;11.32;84.02;102547.09;5115426;28;20447;-67
2022/05/08 03:09:12;;;;;;;16.13;10.85;;;;;;;11.26;84.01;102544.41;5097559;28;20034;-67
2022/05/08 03:11:37;;;;;;;17.83;10.73;;;;;;;11.18;84.27;102530.38;5115135;28;20292;-65
2022/05/08 03:14:02;;;;;;;22.83;11.02;;;;;;;11.19;84.38;102540.88;5115568;28;20023;-66
2022/05/08 03:16:28;;;;;;;17.08;10.88;;;;;;;11.23;84.52;102547.03;5116066;28;20023;-67
2022/05/08 03:18:55;;;;;;;19.55;10.90;;;;;;;11.16;84.86;102557.44;5115685;28;20055;-69
2022/05/08 03:21:21;;;;;;;20.35;11.20;;;;;;;11.20;84.82;102546.97;5115505;28;20027;-66
2022/05/08 03:23:46;;;;;;;19.52;10.52;;;;;;;11.14;83.92;102546.03;5115391;28;20039;-67
2022/05/08 03:26:14;;;;;;;20.05;10.55;;;;;;;11.24;83.46;102546.16;5115387;28;20038;-66
2022/05/08 03:28:39;;;;;;;21.33;10.32;;;;;;;11.10;83.55;102545.97;5115414;28;20445;-67
2022/05/08 03:31:05;;;;;;;18.77;10.93;;;;;;;11.11;83.03;102559.09;5115781;28;20063;-67
2022/05/08 03:33:32;;;;;;;20.85;10.73;;;;;;;11.05;83.47;102548.56;5115351;28;20122;-68
2022/05/08 03:35:58;;;;;;;17.75;10.73;;;;;;;11.15;83.34;102554.78;5115025;28;20035;-66
2022/05/08 03:38:25;;;;;;;20.05;9.52;;;;;;;11.11;83.19;102552.97;5115343;28;20028;-67
2022/05/08 03:40:50;;;;;;;19.35;10.30;;;;;;;11.05;83.26;102552.94;5097324;28;20453;-65
2022/05/08 03:43:15;;;;;;;17.73;9.15;;;;;;;11.14;83.25;102553.03;5115338;28;20023;-68
2022/05/08 03:45:41;;;;;;;22.27;10.50;;;;;;;11.04;82.76;102552.06;5115543;28;20032;-67
2022/05/08 03:48:07;;;;;;;17.70;9.65;;;;;;;11.05;82.54;102551.19;5115217;28;20034;-67
2022/05/08 03:50:32;;;;;;;20.77;8.63;;;;;;;11.09;80.57;102557.31;5111696;28;20058;-66
2022/05/08 03:52:58;;;;;;;19.42;8.85;;;;;;;11.02;81.10;102558.13;5115156;28;20312;-68
2022/05/08 03:55:24;;;;;;;16.63;8.00;;;;;;;11.10;80.89;102561.69;5115206;28;20023;-67
2022/05/08 03:57:50;;;;;;;16.05;8.13;;;;;;;11.14;80.55;102558.25;5115166;28;20039;-67
2022/05/08 04:00:16;;;;;;;20.63;7.55;;;;;;;11.18;79.46;102548.72;5115169;28;20092;-67
2022/05/08 04:02:42;;;;;;;17.48;7.63;;;;;;;11.10;79.60;102561.69;5115184;28;20102;-67
2022/05/08 04:05:08;;;;;;;18.58;7.60;;;;;;;11.02;79.38;102563.38;5115394;28;20177;-66
2022/05/08 04:07:33;;;;;;;18.90;7.60;;;;;;;11.04;79.34;102562.53;5114746;28;20020;-68
2022/05/08 04:09:59;;;;;;;17.60;7.57;;;;;;;11.06;79.44;102559.94;5115075;28;20045;-66
2022/05/08 04:12:26;;;;;;;20.45;7.20;;;;;;;11.08;77.47;102571.31;5115166;28;20038;-66
2022/05/08 04:14:51;;;;;;;18.50;7.13;;;;;;;10.90;78.32;102565.84;5114930;28;20047;-68
2022/05/08 04:17:16;;;;;;;19.38;7.18;;;;;;;10.91;77.75;102575.47;5115210;28;20032;-69
2022/05/08 04:19:42;;;;;;;19.63;6.72;;;;;;;10.89;77.99;102575.44;5114962;28;20051;-66
2022/05/08 04:24:52;;;;;;;17.15;5.90;;;;;;;10.78;76.85;102582.25;5117081;28;20488;-67
2022/05/08 04:27:17;;;;;;;19.58;6.32;;;;;;;10.79;77.21;102584.88;5119100;28;20032;-67
2022/05/08 04:29:42;;;;;;;19.58;6.65;;;;;;;10.79;76.68;102579.66;5118929;28;20433;-67
2022/05/08 04:32:09;;;;;;;18.27;6.55;;;;;;;10.72;76.74;102569.09;5118694;28;20058;-66
2022/05/08 04:34:34;;;;;;;20.77;5.88;;;;;;;10.66;76.29;102579.47;5119108;28;20027;-66
2022/05/08 04:36:59;;;;;;;20.40;5.90;;;;;;;10.59;77.11;102575.00;5118644;28;20384;-66
2022/05/08 04:39:25;;;;;;;19.45;5.50;;;;;;;10.56;76.67;102582.84;5118543;28;20035;-69
2022/05/08 04:41:50;;;;;;;22.90;5.75;;;;;;;10.53;76.97;102575.81;5118669;28;20027;-68
2022/05/08 04:44:15;;;;;;;22.88;5.90;;;;;;;10.39;77.56;102567.72;5118031;28;20039;-67
2022/05/08 04:46:40;;;;;;;20.83;5.70;;;;;;;10.41;77.43;102586.06;5118421;28;20118;-66
2022/05/08 04:49:06;;;;;;;18.88;5.80;;;;;;;10.49;77.93;102589.69;5118449;28;20168;-67
2022/05/08 04:51:31;;;;;;;21.50;5.80;;;;;;;10.51;77.54;102593.22;5118686;28;20087;-65
2022/05/08 04:53:56;;;;;;;23.02;5.93;;;;;;;10.46;77.82;102597.50;5118550;28;20026;-71
2022/05/08 04:56:22;;;;;;;21.48;5.60;;;;;;;10.50;77.54;102598.44;5118235;28;20124;-69
2022/05/08 04:58:47;;;;;;;19.63;6.10;;;;;;;10.43;77.80;102608.78;5118349;28;20026;-71
2022/05/08 05:01:13;;;;;;;23.88;6.65;;;;;;;10.50;77.57;102609.78;5117987;28;20114;-69
2022/05/08 05:03:38;;;;;;;23.63;6.00;;;;;;;10.47;78.12;102604.50;5118263;28;20035;-71
2022/05/08 05:06:04;;;;;;;22.73;5.95;;;;;;;10.48;77.67;102606.25;5118134;28;20027;-71
2022/05/08 05:08:29;;;;;;;20.83;5.57;;;;;;;10.44;78.10;102610.56;5118093;28;20038;-67
2022/05/08 05:10:54;;;;;;;25.60;6.78;;;;;;;10.41;78.07;102609.63;5118162;28;20031;-67
2022/05/08 05:13:20;;;;;;;22.50;6.10;;;;;;;10.43;78.02;102605.31;5117819;28;20023;-66
2022/05/08 05:15:45;;;;;;;21.08;5.82;;;;;;;10.53;78.89;102615.06;5118070;28;20088;-65
2022/05/08 05:18:10;;;;;;;21.15;5.88;;;;;;;10.50;78.44;102615.03;5117292;28;20044;-65
2022/05/08 05:20:35;;;;;;;25.80;5.72;;;;;;;10.52;78.11;102615.94;5118113;28;20043;-68
2022/05/08 05:23:01;;;;;;;24.08;5.93;;;;;;;10.45;78.12;102620.19;5117737;28;20027;-66
2022/05/08 05:25:28;;;;;;;26.70;6.30;;;;;;;10.42;78.98;102622.75;5117673;28;20097;-68
2022/05/08 05:27:54;;;;;;;20.90;5.82;;;;;;;10.50;78.01;102629.84;5117654;28;20051;-68
2022/05/08 05:30:19;;;;;;;25.85;6.00;;;;;;;10.38;78.68;102630.53;5117322;28;20035;-66
2022/05/08 05:32:45;;;;;;;20.27;5.70;;;;;;;10.46;78.19;102640.25;5117416;28;20096;-65
2022/05/08 05:35:11;;;;;;;23.50;5.88;;;;;;;10.45;77.78;102629.75;5116841;28;20032;-66
2022/05/08 05:37:36;;;;;;;25.92;6.10;;;;;;;10.50;77.38;102641.19;5099313;28;20035;-67
2022/05/08 05:40:02;;;;;;;22.10;5.30;;;;;;;10.41;77.10;102627.94;5099428;28;20043;-66
2022/05/08 05:42:27;;;;;;;23.00;6.10;;;;;;;10.55;78.28;102644.78;5117795;28;20495;-66
2022/05/08 05:44:52;;;;;;;21.17;5.40;;;;;;;10.55;77.33;102647.41;5099460;28;20423;-65
2022/05/08 05:50:02;;;;;;;20.80;5.45;;;;;;;10.63;76.53;102664.09;5117090;28;20100;-65
2022/05/08 05:52:28;;;;;;;20.58;5.38;;;;;;;10.77;77.04;102657.31;5114150;28;20077;-68
2022/05/08 05:54:53;;;;;;;22.65;5.72;;;;;;;10.82;74.74;102663.50;5117328;28;20063;-65
2022/05/08 05:57:18;;;;;;;20.80;5.10;;;;;;;10.85;75.04;102667.03;5116670;28;20062;-64
2022/05/08 05:59:44;;;;;;;23.10;4.97;;;;;;;10.89;74.47;102671.47;5117223;28;20028;-62
2022/05/08 06:02:09;;;;;;;23.05;5.38;;;;;;;10.80;74.80;102678.31;5116852;28;20227;-63
2022/05/08 06:04:34;;;;;;;19.88;5.28;;;;;;;10.83;75.05;102659.16;5116932;28;20043;-64
2022/05/08 06:07:00;;;;;;;21.45;5.43;;;;;;;10.92;74.21;102672.38;5116984;28;20089;-63
2022/05/08 06:09:25;;;;;;;21.35;5.30;;;;;;;11.03;74.18;102673.41;5117015;28;20128;-64
2022/05/08 06:11:52;;;;;;;19.23;4.72;;;;;;;11.02;72.69;102676.91;5116919;28;20031;-65
2022/05/08 06:14:17;;;;;;;21.20;5.13;;;;;;;11.01;73.98;102692.59;5116460;28;20032;-69
2022/05/08 06:16:43;;;;;;;21.90;5.25;;;;;;;11.13;73.68;102680.53;5116580;28;20032;-65
2022/05/08 06:19:09;;;;;;;22.15;4.57;;;;;;;11.24;72.69;102680.69;5099077;28;20335;-67
2022/05/08 06:21:34;;;;;;;22.85;5.10;;;;;;;11.34;71.97;102682.56;5116726;28;20019;-67
2022/05/08 06:23:59;;;;;;;20.75;5.00;;;;;;;11.42;72.16;102686.19;5116640;28;20028;-66
2022/05/08 06:26:25;;;;;;;24.08;5.00;;;;;;;11.48;71.03;102701.09;5116448;28;20035;-66
2022/05/08 06:28:50;;;;;;;19.85;4.75;;;;;;;11.27;72.05;102672.84;5116529;28;20052;-67
2022/05/08 06:31:17;;;;;;;19.77;4.97;;;;;;;11.36;71.18;102666.84;5112998;28;20069;-65
2022/05/08 06:33:43;;;;;;;19.92;4.88;;;;;;;11.46;70.24;102701.06;5116293;28;20023;-66
2022/05/08 06:36:09;;;;;;;20.30;5.40;;;;;;;11.45;69.91;102696.69;5116757;28;20038;-66
2022/05/08 06:38:34;;;;;;;17.15;4.80;;;;;;;11.44;70.23;102700.16;5116214;28;20028;-67
2022/05/08 06:40:59;;;;;;;20.30;5.05;;;;;;;11.56;69.61;102701.19;5116434;28;20027;-68
2022/05/08 06:43:25;;;;;;;19.58;4.50;;;;;;;11.70;69.12;102705.72;5116799;28;20331;-66
2022/05/08 06:45:50;;;;;;;17.05;4.38;;;;;;;11.64;67.95;102707.38;5116226;28;20027;-67
2022/05/08 06:48:15;;;;;;;20.85;4.78;;;;;;;11.67;68.98;102705.69;5111853;28;20047;-66
2022/05/08 06:50:40;;;;;;;16.70;4.35;;;;;;;11.83;67.87;102712.03;5115918;28;20023;-66
2022/05/08 06:53:06;;;;;;;17.83;4.80;;;;;;;11.75;67.45;102716.28;5112650;28;20342;-68
2022/05/08 06:55:33;;;;;;;17.45;4.30;;;;;;;11.76;68.62;102710.22;5104058;28;20049;-67
2022/05/08 06:57:58;;;;;;;13.85;4.25;;;;;;;11.91;67.46;102707.75;5104546;28;20427;-68
2022/05/08 07:03:07;;;;;;;16.08;4.63;;;;;;;11.94;66.82;102713.03;5103864;28;20462;-65
2022/05/08 07:05:36;;;;;;;21.55;4.82;;;;;;;11.90;67.47;102719.13;5105588;28;20023;-66
2022/05/08 07:08:01;;;;;;;19.55;4.65;;;;;;;12.06;67.57;102710.53;5107943;28;20054;-67
2022/05/08 07:10:26;;;;;;;18.88;4.72;;;;;;;12.20;66.71;102714.19;5104095;28;20498;-67
2022/05/08 07:12:52;;;;;;;18.48;4.30;;;;;;;12.06;66.15;102710.53;5104823;28;20024;-64
2022/05/08 07:15:17;;;;;;;23.33;5.07;;;;;;;11.99;66.58;102716.56;5100958;28;20035;-67
2022/05/08 07:17:42;;;;;;;14.68;4.35;;;;;;;11.95;66.42;102706.06;5103841;28;20027;-67
2022/05/08 07:20:09;;;;;;;15.55;4.53;;;;;;;12.06;66.12;102715.78;5105539;28;20023;-65
2022/05/08 07:22:35;;;;;;;22.33;4.85;;;;;;;12.10;65.99;102728.09;5100856;28;20055;-64
2022/05/08 07:25:01;;;;;;;23.10;4.85;;;;;;;12.10;66.78;102717.59;5106474;28;20163;-66
2022/05/08 07:27:26;;;;;;;20.80;5.15;;;;;;;12.10;65.45;102717.59;5113274;28;20028;-63
2022/05/08 07:29:52;;;;;;;20.15;4.25;;;;;;;11.97;66.14;102722.66;5115555;28;20039;-66
2022/05/08 07:32:18;;;;;;;19.23;4.50;;;;;;;11.97;66.72;102728.78;5115227;28;20028;-67
2022/05/08 07:37:27;;;;;;;24.35;4.57;;;;;;;11.74;66.75;102718.03;5114782;28;20092;-66
2022/05/08 07:39:52;;;;;;;17.98;4.97;;;;;;;11.69;67.62;102724.94;5114829;28;20427;-66
2022/05/08 07:42:17;;;;;;;20.88;4.53;;;;;;;11.79;66.70;102713.72;5114509;28;20036;-66
2022/05/08 07:44:43;;;;;;;19.23;5.00;;;;;;;11.91;67.18;102734.00;5097329;28;20039;-61
2022/05/08 07:47:08;;;;;;;16.52;4.88;;;;;;;11.87;67.25;102732.19;5099498;28;20492;-67
2022/05/08 07:49:33;;;;;;;20.67;4.60;;;;;;;11.81;66.48;102721.63;5103623;28;20024;-68
2022/05/08 07:51:58;;;;;;;26.85;4.90;;;;;;;11.94;66.66;102731.41;5100619;28;20044;-67
2022/05/08 07:54:25;;;;;;;17.05;5.22;;;;;;;11.88;67.15;102725.19;5104304;28;20447;-66
2022/05/08 07:56:51;;;;;;;28.92;6.13;;;;;;;11.88;67.52;102728.72;5107926;28;20474;-66
2022/05/08 07:59:16;;;;;;;24.60;5.22;;;;;;;11.97;67.51;102733.16;5106433;28;20036;-66
2022/05/08 08:01:42;;;;;;;19.13;4.88;;;;;;;11.99;67.56;102736.69;5105631;28;20107;-69
2022/05/08 08:04:09;;;;;;;18.98;5.45;;;;;;;11.96;67.49;102736.66;5112437;28;20023;-67
2022/05/08 08:06:35;;;;;;;18.65;5.90;;;;;;;11.94;68.19;102735.78;5099194;28;20035;-64
2022/05/08 08:09:00;;;;;;;19.65;5.00;;;;;;;12.01;66.68;102741.09;5105572;28;20610;-64
2022/05/08 08:11:26;;;;;;;20.15;5.38;;;;;;;12.03;65.45;102739.38;5099534;28;20110;-67
2022/05/08 08:13:51;;;;;;;25.23;4.88;;;;;;;11.95;64.90;102724.44;5096710;28;20028;-67
2022/05/08 08:16:17;;;;;;;26.40;5.28;;;;;;;11.96;65.73;102737.53;5101436;28;20091;-66
2022/05/08 08:18:44;;;;;;;19.35;5.60;;;;;;;11.96;65.76;102740.16;5099334;28;20032;-67
2022/05/08 08:21:13;;;;;;;21.40;5.63;;;;;;;12.02;66.50;102740.22;5096519;28;20020;-67
2022/05/08 08:23:40;;;;;;;21.00;5.07;;;;;;;12.08;66.25;102742.94;5096341;28;20050;-66
2022/05/08 08:26:07;;;;;;;21.02;5.00;;;;;;;12.15;66.08;102744.75;5097466;28;20043;-64
2022/05/08 08:28:32;;;;;;;19.50;5.40;;;;;;;12.33;65.89;102737.91;5097977;28;20127;-64
2022/05/08 08:30:57;;;;;;;23.48;5.03;;;;;;;12.43;64.27;102743.28;5098011;28;20165;-67
2022/05/08 08:33:23;;;;;;;14.57;4.70;;;;;;;12.40;63.99;102731.88;5098115;28;20020;-66
2022/05/08 08:35:49;;;;;;;16.83;5.03;;;;;;;12.54;63.92;102746.88;5097696;28;20028;-66
2022/05/08 08:38:14;;;;;;;18.83;5.40;;;;;;;12.65;63.41;102753.97;5097684;28;20137;-66
2022/05/08 08:40:40;;;;;;;15.85;5.20;;;;;;;12.61;63.39;102739.06;5097975;28;20039;-65
2022/05/08 08:43:07;;;;;;;18.50;5.18;;;;;;;12.65;63.29;102741.72;5097680;28;20146;-65
2022/05/08 08:48:27;;;;;;;23.25;4.93;;;;;;;12.69;64.33;102746.13;5097848;28;20043;-67
2022/05/08 08:50:56;;;;;;;17.27;5.03;;;;;;;12.82;64.35;102745.34;5097349;28;20375;-66
2022/05/08 08:53:22;;;;;;;19.90;5.10;;;;;;;13.05;62.22;102737.63;5094316;28;20055;-68
2022/05/08 08:55:51;;;;;;;17.77;4.65;;;;;;;13.63;61.99;102743.28;5097430;28;20044;-67
2022/05/08 08:58:17;;;;;;;18.30;4.60;;;;;;;14.01;59.58;102746.03;5079567;28;20039;-64
2022/05/08 09:00:43;;;;;;;24.70;4.80;;;;;;;14.80;55.94;102734.72;5097553;28;20039;-65
2022/05/08 09:03:09;;;;;;;14.65;4.40;;;;;;;15.78;54.21;102736.25;5097285;28;20097;-68
2022/05/08 09:05:34;;;;;;;15.05;4.72;;;;;;;17.04;48.74;102732.72;5097311;28;20035;-66
2022/05/08 09:08:00;;;;;;;18.98;4.40;;;;;;;17.57;46.06;102725.94;5097633;28;20027;-66
2022/05/08 09:10:35;;;;;;;16.85;5.03;;;;;;;17.95;45.93;102730.78;5096630;28;20028;-66
2022/05/08 09:13:02;;;;;;;13.73;3.90;;;;;;;18.42;43.85;102727.41;5097227;28;20059;-66
2022/05/08 09:15:29;;;;;;;14.85;3.97;;;;;;;17.96;44.27;102732.53;5097466;28;20069;-66
2022/05/08 09:17:59;;;;;;;15.98;3.92;;;;;;;17.36;46.17;102740.28;5096961;28;20065;-69
2022/05/08 09:20:26;;;;;;;14.00;4.15;;;;;;;16.64;45.22;102737.47;5097202;28;20028;-67
2022/05/08 09:23:11;;;;;;;10.82;3.67;;;;;;;16.22;47.50;102732.50;5096739;28;20324;-67
2022/05/08 09:25:47;;;;;;;10.75;3.40;;;;;;;15.92;48.66;102723.88;5097141;28;20070;-67
2022/05/08 09:28:20;;;;;;;14.25;3.53;;;;;;;15.98;47.21;102725.59;5097074;28;20320;-66
2022/05/08 09:31:06;;;;;;;14.00;4.18;;;;;;;15.70;49.37;102729.25;5097002;28;20165;-68
2022/05/08 09:33:39;;;;;;;13.90;3.78;;;;;;;15.79;49.17;102721.28;5096847;28;20454;-68
2022/05/08 09:36:08;;;;;;;11.52;3.70;;;;;;;15.80;47.19;102713.38;5096994;28;20415;-70
2022/05/08 09:38:40;;;;;;;12.48;3.72;;;;;;;15.85;47.17;102726.53;5097006;28;20351;-67
2022/05/08 09:41:05;;;;;;;;;;;;;;;16.01;48.41;102720.28;5097156;28;20028;-66
2022/05/08 09:43:32;;;;;;;12.35;4.00;;;;;;;16.00;46.76;102722.06;5097148;28;19912;-68
2022/05/08 09:45:58;;;;;;;9.77;3.30;;;;;;;16.01;45.43;102721.16;5096807;28;20028;-66
2022/05/08 09:48:28;;;;;;;9.25;3.25;;;;;;;16.27;46.47;102728.06;5079049;28;20036;-66
2022/05/08 09:50:59;;;;;;;14.38;3.75;;;;;;;16.48;46.12;102719.06;5096665;28;20067;-66
2022/05/08 09:53:26;;;;;;;16.50;4.22;;;;;;;16.51;46.22;102734.91;5096221;28;20043;-66
2022/05/08 09:55:53;;;;;;;10.63;3.70;;;;;;;16.45;45.57;102722.63;5096665;28;20089;-67
2022/05/08 09:58:18;;;;;;;11.30;4.07;;;;;;;16.48;46.99;102724.38;5096514;28;20027;-68
2022/05/08 10:00:45;;;;;;;14.48;4.07;;;;;;;16.58;46.85;102720.78;5096413;28;20093;-68
2022/05/08 10:03:11;;;;;;;16.30;4.55;;;;;;;16.66;46.11;102726.88;5096302;28;20035;-67
2022/05/08 10:05:37;;;;;;;14.15;3.70;;;;;;;16.68;47.46;102718.06;5096631;28;20035;-68
2022/05/08 10:08:03;;;;;;;11.55;3.58;;;;;;;16.79;47.15;102723.28;5096170;28;20420;-68
2022/05/08 10:13:53;;;;;;;11.93;3.88;;;;;;;16.88;48.11;102712.59;5096082;28;20134;-67
2022/05/08 10:16:47;;;;;;;13.35;3.72;;;;;;;17.06;47.79;102703.59;5095930;28;20107;-67
2022/05/08 10:19:24;;;;;;;11.20;3.88;;;;;;;17.29;47.45;102701.59;5095951;28;20103;-67
2022/05/08 10:21:52;;;;;;;11.90;4.00;;;;;;;17.38;46.60;102711.16;5095793;28;20460;-67
2022/05/08 10:24:42;;;;;;;9.63;3.80;;;;;;;17.31;46.88;102706.84;5095991;28;20082;-67
2022/05/08 10:27:14;;;;;;;7.43;2.95;;;;;;;17.32;44.89;102687.41;5083827;28;20044;-66
2022/05/08 10:30:03;;;;;;;8.05;3.38;;;;;;;17.41;44.28;102695.25;5096049;28;20048;-67
2022/05/08 10:32:31;;;;;;;14.07;3.92;;;;;;;17.23;44.22;102700.75;5082711;28;20463;-69
2022/05/08 10:35:20;;;;;;;12.77;4.20;;;;;;;17.17;45.56;102707.00;5095751;28;20070;-66
2022/05/08 10:37:50;;;;;;;11.05;3.72;;;;;;;17.18;45.48;102699.94;5095593;28;20107;-67
2022/05/08 10:40:21;;;;;;;12.65;3.50;;;;;;;17.61;45.80;102698.53;5095854;28;20339;-67
2022/05/08 10:42:47;;;;;;;11.07;3.35;;;;;;;17.83;45.08;102687.69;5095567;28;20024;-67
2022/05/08 10:45:36;;;;;;;12.45;3.60;;;;;;;17.88;44.65;102681.41;5095765;28;20031;-67
2022/05/08 10:48:08;;;;;;;9.10;3.30;;;;;;;17.69;43.60;102686.09;5095691;28;20113;-66
2022/05/08 10:50:34;;;;;;;13.98;3.70;;;;;;;17.79;43.63;102686.84;5095652;28;20042;-68
2022/05/08 10:52:59;;;;;;;11.75;3.60;;;;;;;17.83;42.87;102677.09;5095611;28;20039;-68
2022/05/08 10:55:26;;;;;;;11.38;3.13;;;;;;;17.86;41.72;102677.91;5095364;28;20043;-65
2022/05/08 10:57:53;;;;;;;10.77;3.15;;;;;;;17.88;43.22;102683.19;5095274;28;20038;-69
2022/05/08 11:00:20;;;;;;;12.18;3.38;;;;;;;17.76;42.02;102686.88;5095323;28;20066;-66
2022/05/08 11:02:50;;;;;;;10.02;3.33;;;;;;;17.72;44.03;102677.22;5095354;28;20036;-66
2022/05/08 11:05:20;;;;;;;11.68;3.60;;;;;;;17.92;42.97;102683.13;5095267;28;20050;-67
2022/05/08 11:07:54;;;;;;;11.10;3.40;;;;;;;17.84;42.70;102674.41;5095027;28;20036;-67
2022/05/08 11:10:27;;;;;;;7.35;3.00;;;;;;;17.94;42.25;102675.16;5096570;28;20057;-68
2022/05/08 11:12:59;;;;;;;10.95;3.60;;;;;;;17.93;43.00;102689.31;5115462;28;20058;-67
2022/05/08 11:15:31;;;;;;;13.63;3.63;;;;;;;17.87;43.01;102684.06;5115358;28;20041;-58
2022/05/08 11:18:15;;;;;;;11.20;3.60;;;;;;;17.93;44.18;102676.06;5115471;28;20114;-58
2022/05/08 11:20:50;;;;;;;14.88;3.92;;;;;;;17.98;43.27;102667.16;5115086;28;20443;-58
2022/05/08 11:23:18;;;;;;;12.43;3.30;;;;;;;18.23;43.34;102672.94;5114896;28;20450;-58
2022/05/08 11:26:09;;;;;;;14.15;3.70;;;;;;;18.22;42.78;102668.53;5114502;28;20058;-59
2022/05/08 11:28:46;;;;;;;9.25;3.25;;;;;;;18.08;42.22;102674.03;5114354;28;20494;-58
2022/05/08 11:31:16;;;;;;;10.80;3.15;;;;;;;18.16;43.53;102667.75;5107863;28;20054;-68
2022/05/08 11:36:27;;;;;;;7.95;3.50;;;;;;;18.18;41.46;102676.56;5115146;28;20069;-67
2022/05/08 11:39:04;;;;;;;10.35;2.95;;;;;;;18.05;41.24;102667.91;5115122;28;20028;-66